Reseda, CA

12:39 AM PST on February 21, 2017 (GMT -0800)
Reseda | | Change Station

Elev 749 ft 34.21 °N, 118.52 °W | Updated 3 seconds ago

Overcast
Overcast
55.8 °F
Feels Like 55.8 °F
N
0.0
Wind Variable Wind from East
Gusts 0.0 mph

Today
High -- | Low -- °F
--% Chance of Precip.
Yesterday
High -- | Low -- °F
Precip. -- in
Pressure 30.30 in
Visibility 8.0 miles
Clouds Overcast 2300 ft
Dew Point 54 °F
Humidity 92%
Rainfall 0.00 in
Snow Depth Not available.
6:32 AM 5:43 PM
Waning Crescent, 27% visible
METAR KVNY 210751Z 00000KT 8SM OVC023 13/13 A3031 RMK AO2 SLP260 T01330128 401440100
Pressure 30.30 in
Visibility 8.0 miles
Clouds Overcast 2300 ft
Dew Point 54 °F
Humidity 92%
Rainfall 0.00 in
Snow Depth Not available.
6:32 AM 5:43 PM
Waning Crescent, 27% visible
METAR KVNY 210751Z 00000KT 8SM OVC023 13/13 A3031 RMK AO2 SLP260 T01330128 401440100

Get Your Daily Forecast Email!

Thanks for signing up!

Be on the lookout for a verification email in your inbox.

You'll start receiving the daily forecast at 8 AM.

×

10-Day Weather Forecast

Almanac

Astronomy

Feb. 21, 2017 Rise Set
Actual Time
Civil Twilight
Nautical Twilight
Astronomical Twilight
Moon
Length of Visible Light
Length of Day
Tomorrow will be .
, % of the Moon is Illuminated

Today's Extremes

State Highs State Lows

Community

WunderPhotos

Upload Photos

1,962,540 photos uploaded!

WunderBlog® & News

Nearby

Air Quality

  Air Quality AQ Index Pollutant
Not available.

Snow Depth

Station Depth Elevation

Earthquake Activity

City Distance Mag. Time & Date
Minimum magnitude displayed is 2.5.

Coastal Water Temperatures

Place Temperature

Stations

Nearby Weather Stations

Station Location Temp. Windchill Dew Point Humidity Wind Precip. Elev Updated Type
                   

Watches & Warnings

There are currently no watches in effect.